Time;durP1;ratioP1;P1;durP2;ratioP2;P2;SDS_P1;SDS_P2;PMS_P1;PMS_P2;Temp;Humidity;BMP_temperature;BMP_pressure;BME280_temperature;BME280_humidity;BME280_pressure;Samples;Min_cycle;Max_cycle;Signal;HPM_P1;HPM_P2
2021/10/18 00:01:43;;;;;;;1999.90;999.90;;;;;;;6.93;50.00;101806.38;5062142;27;100735;-70
2021/10/18 00:04:11;;;;;;;1999.90;999.90;;;;;;;6.93;50.10;101803.72;5049417;27;100804;-71
2021/10/18 00:06:38;;;;;;;1999.90;999.90;;;;;;;6.92;50.01;101807.22;5062329;27;97704;-71
2021/10/18 00:09:07;;;;;;;1999.90;999.90;;;;;;;6.91;50.10;101805.38;5063851;27;96834;-71
2021/10/18 00:11:39;;;;;;;1999.90;999.90;;;;;;;6.91;50.20;101815.97;5060743;27;100581;-71
2021/10/18 00:14:08;;;;;;;1999.90;999.90;;;;;;;6.93;50.06;101814.31;5064737;27;97541;-71
2021/10/18 00:16:36;;;;;;;1999.90;999.90;;;;;;;6.94;50.00;101809.94;5080364;27;98170;-71
2021/10/18 00:19:05;;;;;;;1999.90;999.90;;;;;;;6.96;50.34;101810.94;5063886;27;97327;-70
2021/10/18 00:21:32;;;;;;;1999.90;999.90;;;;;;;6.95;49.97;101804.72;5061448;27;100694;-70
2021/10/18 00:24:00;;;;;;;1999.90;999.90;;;;;;;6.96;50.10;101813.56;5046198;27;100749;-70
2021/10/18 00:26:29;;;;;;;1999.90;999.90;;;;;;;6.96;49.92;101813.56;5061880;27;96992;-70
2021/10/18 00:28:57;;;;;;;1999.90;999.90;;;;;;;6.96;50.06;101810.94;5060195;27;97460;-70
2021/10/18 00:31:25;;;;;;;1999.90;999.90;;;;;;;6.98;50.21;101807.50;5043310;27;101388;-70
2021/10/18 00:33:53;;;;;;;1999.90;999.90;;;;;;;7.02;50.18;101816.50;5068680;27;97904;-70
2021/10/18 00:36:21;;;;;;;1999.90;999.90;;;;;;;7.02;50.19;101814.78;5068364;27;96690;-71
2021/10/18 00:38:53;;;;;;;1999.90;999.90;;;;;;;7.03;49.83;101818.34;5068373;27;97362;-73
2021/10/18 00:41:21;;;;;;;1999.90;999.90;;;;;;;7.04;49.73;101813.13;5061262;27;99346;-70
2021/10/18 00:43:51;;;;;;;1999.90;999.90;;;;;;;7.04;49.87;101812.22;5064376;27;99346;-69
2021/10/18 00:46:22;;;;;;;1999.90;999.90;;;;;;;7.05;49.92;101814.94;5062843;27;97160;-70
2021/10/18 00:48:51;;;;;;;1999.90;999.90;;;;;;;7.03;50.21;101808.69;5061766;27;97214;-71
2021/10/18 00:51:22;;;;;;;1999.90;999.90;;;;;;;7.04;49.80;101814.84;5061786;27;99214;-70
2021/10/18 00:53:51;;;;;;;1999.90;999.90;;;;;;;7.02;50.05;101814.78;5062545;27;97538;-69
2021/10/18 00:56:18;;;;;;;1999.90;999.90;;;;;;;7.00;49.90;101816.44;5067423;27;97631;-71
2021/10/18 00:58:46;;;;;;;1999.90;999.90;;;;;;;6.99;50.23;101808.44;5064165;27;96853;-71
2021/10/18 01:01:17;;;;;;;1999.90;999.90;;;;;;;6.97;50.01;101808.34;5041536;27;99155;-70
2021/10/18 01:03:45;;;;;;;1999.90;999.90;;;;;;;6.94;49.95;101812.56;5068676;27;99016;-72
2021/10/18 01:06:17;;;;;;;1999.90;999.90;;;;;;;6.92;50.09;101809.88;5069405;27;96728;-69
2021/10/18 01:08:44;;;;;;;1999.90;999.90;;;;;;;6.90;49.76;101814.16;5050867;27;97365;-69
2021/10/18 01:11:12;;;;;;;1999.90;999.90;;;;;;;6.88;50.15;101810.53;5063116;27;97652;-69
2021/10/18 01:13:40;;;;;;;1999.90;999.90;;;;;;;6.87;50.18;101807.81;5062678;27;99642;-68
2021/10/18 01:16:08;;;;;;;1999.90;999.90;;;;;;;6.87;50.13;101810.44;5062657;27;96725;-71
2021/10/18 01:18:37;;;;;;;1999.90;999.90;;;;;;;6.83;50.16;101812.03;5066690;27;97008;-70
2021/10/18 01:21:06;;;;;;;1999.90;999.90;;;;;;;6.83;50.44;101800.53;5064735;27;98711;-72
2021/10/18 01:23:34;;;;;;;1999.90;999.90;;;;;;;6.83;50.00;101812.03;5062741;27;100740;-71
2021/10/18 01:26:02;;;;;;;1999.90;999.90;;;;;;;6.82;50.24;101804.91;5063683;27;96994;-69
2021/10/18 01:28:30;;;;;;;1999.90;999.90;;;;;;;6.83;50.61;101806.75;5058105;27;96844;-71
2021/10/18 01:30:58;;;;;;;1999.90;999.90;;;;;;;6.84;50.23;101807.63;5058554;27;100379;-71
2021/10/18 01:33:26;;;;;;;1999.90;999.90;;;;;;;6.84;49.97;101810.25;5043619;27;100740;-69
2021/10/18 01:35:54;;;;;;;1999.90;999.90;;;;;;;6.84;50.32;101815.56;5063198;27;96852;-70
2021/10/18 01:38:23;;;;;;;1999.90;999.90;;;;;;;6.83;50.34;101811.09;5048484;27;97340;-71
2021/10/18 01:40:51;;;;;;;1999.90;999.90;;;;;;;6.84;50.23;101821.75;5057847;27;100698;-71
2021/10/18 01:43:19;;;;;;;1999.90;999.90;;;;;;;6.84;50.24;101821.75;5062334;27;99471;-70
2021/10/18 01:45:47;;;;;;;1999.90;999.90;;;;;;;6.83;50.46;101822.59;5065195;27;96774;-70
2021/10/18 01:48:15;;;;;;;1999.90;999.90;;;;;;;6.83;50.24;101819.03;5064266;27;97225;-69
2021/10/18 01:50:43;;;;;;;1999.90;999.90;;;;;;;6.81;50.15;101824.25;5063830;27;97456;-69
2021/10/18 01:53:11;;;;;;;1999.90;999.90;;;;;;;6.80;50.52;101824.16;5064749;27;100667;-69
2021/10/18 01:55:40;;;;;;;1999.90;999.90;;;;;;;6.79;50.34;101825.91;5063940;27;98295;-70
2021/10/18 01:58:08;;;;;;;1999.90;999.90;;;;;;;6.78;50.15;101823.19;5063466;27;96967;-71
2021/10/18 02:00:36;;;;;;;1999.90;999.90;;;;;;;6.76;50.27;101825.72;5061938;27;97280;-70
2021/10/18 02:03:05;;;;;;;1999.90;999.90;;;;;;;6.73;50.40;101829.94;5066322;27;97545;-70
2021/10/18 02:05:33;;;;;;;1999.90;999.90;;;;;;;6.72;50.22;101842.28;5066394;27;97424;-71
2021/10/18 02:08:01;;;;;;;1999.90;999.90;;;;;;;6.72;50.65;101838.72;5063916;27;97604;-72
2021/10/18 02:10:30;;;;;;;1999.90;999.90;;;;;;;6.72;50.51;101844.03;5065852;27;97532;-71
2021/10/18 02:12:59;;;;;;;1999.90;999.90;;;;;;;6.73;50.43;101835.25;5061838;27;97886;-70
2021/10/18 02:15:27;;;;;;;1999.90;999.90;;;;;;;6.73;50.15;101841.44;5064612;27;96778;-70
2021/10/18 02:17:56;;;;;;;1999.90;999.90;;;;;;;6.72;50.22;101837.00;5046531;27;97601;-70
2021/10/18 02:20:23;;;;;;;1999.90;999.90;;;;;;;6.71;50.14;101832.53;5065810;27;97160;-71
2021/10/18 02:22:51;;;;;;;1999.90;999.90;;;;;;;6.71;50.17;101836.91;5045588;27;100016;-69
2021/10/18 02:25:19;;;;;;;1999.90;999.90;;;;;;;6.70;50.38;101832.44;5043362;27;99035;-70
2021/10/18 02:27:50;;;;;;;1999.90;999.90;;;;;;;6.70;50.40;101829.81;5057042;27;98218;-70
2021/10/18 02:30:19;;;;;;;1999.90;999.90;;;;;;;6.67;50.48;101832.28;5046201;27;100393;-70
2021/10/18 02:32:47;;;;;;;1999.90;999.90;;;;;;;6.66;50.03;101822.53;5062390;27;97693;-70
2021/10/18 02:35:14;;;;;;;1999.90;999.90;;;;;;;6.65;50.51;101810.13;5044317;27;97150;-71
2021/10/18 02:37:43;;;;;;;1999.90;999.90;;;;;;;6.66;50.03;101812.88;5062679;27;97046;-71
2021/10/18 02:40:11;;;;;;;1999.90;999.90;;;;;;;6.65;50.24;101800.44;5058732;27;98036;-71
2021/10/18 02:42:39;;;;;;;1999.90;999.90;;;;;;;6.66;50.53;101804.00;5060047;27;97561;-71
2021/10/18 02:45:08;;;;;;;1999.90;999.90;;;;;;;6.67;50.54;101797.91;5050174;27;97237;-70
2021/10/18 02:47:37;;;;;;;1999.90;999.90;;;;;;;6.67;50.35;101793.50;5059731;27;97382;-69
2021/10/18 02:50:06;;;;;;;1999.90;999.90;;;;;;;6.66;50.33;101791.69;5063131;27;98913;-70
2021/10/18 02:52:34;;;;;;;1999.90;999.90;;;;;;;6.67;50.38;101797.91;5062295;27;101363;-71
2021/10/18 02:55:02;;;;;;;1999.90;999.90;;;;;;;6.65;50.27;101805.72;5043895;27;97756;-71
2021/10/18 02:57:30;;;;;;;1999.90;999.90;;;;;;;6.67;50.04;101803.19;5045442;27;97711;-71
2021/10/18 02:59:58;;;;;;;1999.90;999.90;;;;;;;6.66;50.13;101799.63;5048260;27;100722;-70
2021/10/18 03:02:27;;;;;;;1999.90;999.90;;;;;;;6.65;49.98;101800.44;5067592;27;97721;-70
2021/10/18 03:04:56;;;;;;;1999.90;999.90;;;;;;;6.66;50.50;101811.94;5060255;27;97939;-70
2021/10/18 03:07:24;;;;;;;1999.90;999.90;;;;;;;6.66;50.41;101804.94;5040567;27;97786;-71
2021/10/18 03:09:52;;;;;;;1999.90;999.90;;;;;;;6.67;50.46;101808.50;5044266;27;99378;-71
2021/10/18 03:12:20;;;;;;;1999.90;999.90;;;;;;;6.70;49.91;101808.63;5056644;27;98562;-72
2021/10/18 03:14:47;;;;;;;1999.90;999.90;;;;;;;6.71;50.13;101816.66;5066645;27;96723;-70
2021/10/18 03:17:16;;;;;;;1999.90;999.90;;;;;;;6.73;49.96;101819.38;5061772;27;97265;-72
2021/10/18 03:19:43;;;;;;;1999.90;999.90;;;;;;;6.73;50.44;101819.38;5062448;27;99275;-72
2021/10/18 03:22:13;;;;;;;1999.90;999.90;;;;;;;6.75;49.85;101833.59;5066012;27;99445;-73
2021/10/18 03:24:40;;;;;;;1999.90;999.90;;;;;;;6.77;49.96;101824.00;5049817;27;97866;-72
2021/10/18 03:27:08;;;;;;;1999.90;999.90;;;;;;;6.80;50.13;101821.50;5064675;27;97114;-71
2021/10/18 03:29:36;;;;;;;1999.90;999.90;;;;;;;6.83;49.91;101825.25;5049697;27;99400;-69
2021/10/18 03:32:04;;;;;;;1999.90;999.90;;;;;;;6.85;50.14;101820.91;5065590;27;97475;-70
2021/10/18 03:34:32;;;;;;;1999.90;999.90;;;;;;;6.85;50.30;101823.56;5063179;27;96792;-70
2021/10/18 03:37:00;;;;;;;1999.90;999.90;;;;;;;6.87;49.86;101821.03;5069077;27;97220;-71
2021/10/18 03:39:29;;;;;;;1999.90;999.90;;;;;;;6.88;50.19;101821.09;5069751;27;97680;-71
2021/10/18 03:41:57;;;;;;;1999.90;999.90;;;;;;;6.88;50.08;101815.81;5065952;27;99548;-71
2021/10/18 03:44:25;;;;;;;1999.90;999.90;;;;;;;6.90;50.44;101819.44;5062295;27;98712;-69
2021/10/18 03:46:53;;;;;;;1999.90;999.90;;;;;;;6.90;49.99;101823.81;5048907;27;97933;-70
2021/10/18 03:49:21;;;;;;;1999.90;999.90;;;;;;;6.87;50.27;101821.91;5063003;27;100008;-70
2021/10/18 03:51:48;;;;;;;1999.90;999.90;;;;;;;6.85;50.09;101820.03;5064522;27;100612;-70
2021/10/18 03:54:16;;;;;;;1999.90;999.90;;;;;;;6.85;50.17;101820.91;5047732;27;98189;-68
2021/10/18 03:56:46;;;;;;;1999.90;999.90;;;;;;;6.83;49.93;101824.34;5065316;27;97872;-70
2021/10/18 03:59:13;;;;;;;1999.90;999.90;;;;;;;6.81;50.13;101828.63;5063230;27;98963;-72
2021/10/18 04:01:41;;;;;;;1999.90;999.90;;;;;;;6.80;50.16;101824.16;5061018;27;98018;-71
2021/10/18 04:04:09;;;;;;;1999.90;999.90;;;;;;;6.78;49.99;101828.50;5061118;27;98835;-73
2021/10/18 04:06:38;;;;;;;1999.90;999.90;;;;;;;6.75;50.42;101834.50;5062758;27;97375;-71
2021/10/18 04:09:07;;;;;;;1999.90;999.90;;;;;;;6.73;50.11;101829.94;5062844;27;97671;-70
2021/10/18 04:11:39;;;;;;;1999.90;999.90;;;;;;;6.74;50.10;101832.72;5068556;27;99165;-71
2021/10/18 04:14:09;;;;;;;1999.90;999.90;;;;;;;6.72;50.02;101830.78;5063977;27;97282;-73
2021/10/18 04:16:36;;;;;;;1999.90;999.90;;;;;;;6.70;50.14;101836.00;5061981;27;96925;-69
2021/10/18 04:19:05;;;;;;;1999.90;999.90;;;;;;;6.67;50.14;101829.66;5067789;27;99795;-71
2021/10/18 04:21:33;;;;;;;1999.90;999.90;;;;;;;6.66;50.34;101843.69;5053943;27;97641;-71
2021/10/18 04:24:01;;;;;;;1999.90;999.90;;;;;;;6.63;50.21;101843.53;5066406;27;96866;-71
2021/10/18 04:26:33;;;;;;;1999.90;999.90;;;;;;;6.61;50.50;101848.75;5062709;27;97506;-71
2021/10/18 04:29:01;;;;;;;1999.90;999.90;;;;;;;6.59;50.72;101852.13;5050184;27;100253;-71
2021/10/18 04:31:31;;;;;;;1999.90;999.90;;;;;;;6.56;50.58;101841.38;5064894;27;99689;-72
2021/10/18 04:33:59;;;;;;;1999.90;999.90;;;;;;;6.52;50.74;101848.25;5059132;27;97241;-71
2021/10/18 04:36:28;;;;;;;1999.90;999.90;;;;;;;6.49;50.57;101848.06;5061815;27;96979;-72
2021/10/18 04:38:56;;;;;;;1999.90;999.90;;;;;;;6.46;50.66;101844.34;5059070;27;99490;-70
2021/10/18 04:41:24;;;;;;;1999.90;999.90;;;;;;;6.44;50.93;101851.28;5063019;27;97635;-71
2021/10/18 04:43:52;;;;;;;1999.90;999.90;;;;;;;6.42;50.92;101860.84;5064971;27;97264;-71
2021/10/18 04:46:20;;;;;;;1999.90;999.90;;;;;;;6.38;50.81;101856.25;5035661;27;97905;-72
2021/10/18 04:48:49;;;;;;;1999.90;999.90;;;;;;;6.35;50.88;101864.91;5037424;27;99208;-70
2021/10/18 04:51:17;;;;;;;1999.90;999.90;;;;;;;6.32;50.80;101861.19;5063180;27;99317;-69
2021/10/18 04:53:44;;;;;;;1999.90;999.90;;;;;;;6.27;51.40;101867.97;5040858;27;99093;-71
2021/10/18 04:56:12;;;;;;;1999.90;999.90;;;;;;;6.22;51.08;101868.56;5063276;27;98992;-69
2021/10/18 04:58:40;;;;;;;1999.90;999.90;;;;;;;6.20;50.90;101861.38;5062377;27;99609;-70
2021/10/18 05:01:07;;;;;;;1999.90;999.90;;;;;;;6.16;51.35;101864.66;5066653;27;97297;-69
2021/10/18 05:03:35;;;;;;;1999.90;999.90;;;;;;;6.14;51.06;101866.34;5057547;27;97974;-71
2021/10/18 05:06:04;;;;;;;1999.90;999.90;;;;;;;6.12;51.17;101876.78;5058618;27;97231;-70
2021/10/18 05:08:32;;;;;;;1999.90;999.90;;;;;;;6.09;51.12;101873.06;5054956;27;100390;-69
2021/10/18 05:11:00;;;;;;;1999.90;999.90;;;;;;;6.08;51.25;101876.56;5059932;27;98665;-70
2021/10/18 05:13:28;;;;;;;1999.90;999.90;;;;;;;6.04;51.07;101871.91;5051195;27;98154;-70
2021/10/18 05:15:56;;;;;;;1999.90;999.90;;;;;;;6.03;51.25;101876.28;5058105;27;98101;-71
2021/10/18 05:18:24;;;;;;;1999.90;999.90;;;;;;;6.02;51.34;101882.41;5055286;27;97674;-71
2021/10/18 05:20:52;;;;;;;1999.90;999.90;;;;;;;6.03;51.22;101881.56;5057200;27;98991;-71
2021/10/18 05:23:27;;;;;;;1999.90;999.90;;;;;;;6.03;51.13;101886.84;5060407;27;96905;-71
2021/10/18 05:26:00;;;;;;;1999.90;999.90;;;;;;;6.04;51.24;101890.41;5045266;27;98611;-72
2021/10/18 05:28:27;;;;;;;1999.90;999.90;;;;;;;6.05;51.44;101889.59;5066653;27;98934;-71
2021/10/18 05:30:55;;;;;;;1999.90;999.90;;;;;;;6.05;51.34;101886.97;5047875;27;100252;-71
2021/10/18 05:33:25;;;;;;;1999.90;999.90;;;;;;;6.04;51.27;101888.69;5057116;27;97827;-72
2021/10/18 05:35:53;;;;;;;1999.90;999.90;;;;;;;6.04;51.16;101891.31;5058097;27;97708;-71
2021/10/18 05:38:24;;;;;;;1999.90;999.90;;;;;;;6.05;51.25;101890.50;5062080;27;100249;-70
2021/10/18 05:40:53;;;;;;;1999.90;999.90;;;;;;;6.06;51.47;101894.06;5061651;27;99231;-71
2021/10/18 05:43:21;;;;;;;1999.90;999.90;;;;;;;6.05;51.38;101892.25;5057309;27;98143;-72
2021/10/18 05:45:49;;;;;;;1999.90;999.90;;;;;;;6.05;51.28;101895.78;5061896;27;97953;-71
2021/10/18 05:48:18;;;;;;;1999.90;999.90;;;;;;;6.05;51.25;101893.13;5040948;27;99173;-71
2021/10/18 05:50:46;;;;;;;1999.90;999.90;;;;;;;6.01;51.42;101892.88;5064875;27;101362;-71
2021/10/18 05:53:15;;;;;;;1999.90;999.90;;;;;;;6.00;51.64;101899.88;5063062;27;97114;-71
2021/10/18 05:55:44;;;;;;;1999.90;999.90;;;;;;;5.98;51.83;101904.19;5062901;27;97082;-72
2021/10/18 05:58:12;;;;;;;1999.90;999.90;;;;;;;5.97;51.80;101904.09;5061684;27;99364;-72
2021/10/18 06:00:42;;;;;;;1999.90;999.90;;;;;;;5.97;52.03;101907.66;5065339;27;100298;-71
2021/10/18 06:03:10;;;;;;;1999.90;999.90;;;;;;;5.98;51.89;101912.09;5066525;27;97234;-70
2021/10/18 06:05:43;;;;;;;1999.90;999.90;;;;;;;5.98;51.75;101912.09;5063442;27;97011;-70
2021/10/18 06:08:12;;;;;;;1999.90;999.90;;;;;;;5.98;52.01;101913.81;5059826;27;100206;-70
2021/10/18 06:10:41;;;;;;;1999.90;999.90;;;;;;;5.97;51.76;101915.59;5060182;27;98903;-70
2021/10/18 06:13:10;;;;;;;1999.90;999.90;;;;;;;5.96;51.66;101919.03;5066614;27;97496;-70
2021/10/18 06:15:39;;;;;;;1999.90;999.90;;;;;;;5.98;51.93;101919.09;5063355;27;97948;-70
2021/10/18 06:18:12;;;;;;;1999.90;999.90;;;;;;;5.98;52.20;101927.03;5058763;27;100604;-71
2021/10/18 06:20:46;;;;;;;1999.90;999.90;;;;;;;5.99;51.77;101929.78;5060532;27;101095;-69
2021/10/18 06:23:15;;;;;;;1999.90;999.90;;;;;;;5.99;51.98;101928.88;5055985;27;96881;-71
2021/10/18 06:25:43;;;;;;;1999.90;999.90;;;;;;;5.98;51.93;101933.25;5048809;27;97399;-69
2021/10/18 06:28:13;;;;;;;1999.90;999.90;;;;;;;5.99;51.99;101932.44;5063749;27;97500;-72
2021/10/18 06:30:41;;;;;;;1999.90;999.90;;;;;;;5.99;51.93;101939.44;5058741;27;97784;-70
2021/10/18 06:33:09;;;;;;;1999.90;999.90;;;;;;;5.99;52.27;101940.38;5059983;27;96660;-71
2021/10/18 06:35:38;;;;;;;1999.90;999.90;;;;;;;5.99;52.16;101950.94;5044524;27;97395;-70
2021/10/18 06:38:10;;;;;;;1999.90;999.90;;;;;;;5.99;51.78;101950.00;5062576;27;100199;-70
2021/10/18 06:40:38;;;;;;;1999.90;999.90;;;;;;;6.00;52.14;101947.44;5061371;27;101239;-69
2021/10/18 06:43:05;;;;;;;1999.90;999.90;;;;;;;6.01;52.03;101948.38;5067812;27;96826;-70
2021/10/18 06:45:35;;;;;;;1999.90;999.90;;;;;;;6.01;52.19;101961.56;5065411;27;96820;-72
2021/10/18 06:48:07;;;;;;;1999.90;999.90;;;;;;;6.01;52.12;101958.94;5062241;27;100911;-71
2021/10/18 06:50:35;;;;;;;1999.90;999.90;;;;;;;6.01;51.89;101972.16;5063581;27;101035;-70
2021/10/18 06:53:04;;;;;;;1999.90;999.90;;;;;;;5.98;52.00;101967.59;5043776;27;96710;-70
2021/10/18 06:55:32;;;;;;;1999.90;999.90;;;;;;;5.97;51.93;101960.50;5062687;27;97081;-71
2021/10/18 06:58:01;;;;;;;1999.90;999.90;;;;;;;5.94;52.23;101965.56;5060410;27;100859;-71
2021/10/18 07:00:29;;;;;;;1999.90;999.90;;;;;;;5.94;52.14;101965.56;5064257;27;98758;-71
2021/10/18 07:02:58;;;;;;;1999.90;999.90;;;;;;;5.94;52.11;101964.69;5062430;27;96794;-71
2021/10/18 07:05:26;;;;;;;1999.90;999.90;;;;;;;5.91;52.33;101973.34;5061697;27;96830;-71
2021/10/18 07:07:54;;;;;;;1999.90;999.90;;;;;;;5.90;52.39;101975.91;5065033;27;98052;-72
2021/10/18 07:10:22;;;;;;;1999.90;999.90;;;;;;;5.89;51.91;101974.97;5064147;27;99483;-72
2021/10/18 07:12:50;;;;;;;1999.90;999.90;;;;;;;5.90;52.12;101975.91;5061389;27;97365;-70
2021/10/18 07:15:18;;;;;;;1999.90;999.90;;;;;;;5.92;52.18;101975.13;5063674;27;97109;-70
2021/10/18 07:17:45;;;;;;;1999.90;999.90;;;;;;;5.92;51.88;101980.44;5044581;27;99493;-71
2021/10/18 07:20:14;;;;;;;1999.90;999.90;;;;;;;5.93;52.08;101983.97;5061503;27;100822;-72
2021/10/18 07:22:43;;;;;;;1999.90;999.90;;;;;;;5.94;52.17;101986.72;5059391;27;96769;-71
2021/10/18 07:25:13;;;;;;;1999.90;999.90;;;;;;;5.95;51.87;101985.91;5061823;27;97866;-72
2021/10/18 07:27:43;;;;;;;1999.90;999.90;;;;;;;5.96;51.91;101981.50;5065080;27;97720;-70
2021/10/18 07:30:11;;;;;;;1999.90;999.90;;;;;;;5.97;52.16;101983.34;5059491;27;100850;-69
2021/10/18 07:32:42;;;;;;;1999.90;999.90;;;;;;;5.98;51.82;101982.50;5056562;27;97237;-70
2021/10/18 07:35:11;;;;;;;1999.90;999.90;;;;;;;5.97;52.09;101981.63;5062677;27;97184;-70
2021/10/18 07:37:51;;;;;;;1999.90;999.90;;;;;;;5.97;51.87;101992.19;5062775;27;97302;-73
2021/10/18 07:40:19;;;;;;;1999.90;999.90;;;;;;;5.99;51.76;101990.56;5059749;27;100722;-72
2021/10/18 07:42:47;;;;;;;1999.90;999.90;;;;;;;6.01;51.68;101985.34;5045393;27;96893;-71
2021/10/18 07:45:15;;;;;;;1999.90;999.90;;;;;;;6.02;52.07;101985.44;5043137;27;97671;-70
2021/10/18 07:47:43;;;;;;;1999.90;999.90;;;;;;;6.04;51.98;101990.81;5056832;27;98453;-70
2021/10/18 07:50:14;;;;;;;1999.90;999.90;;;;;;;6.05;51.65;101990.00;5043314;27;98793;-71
2021/10/18 07:52:44;;;;;;;1999.90;999.90;;;;;;;6.07;51.54;101988.34;5058804;27;97335;-70
2021/10/18 07:55:15;;;;;;;1999.90;999.90;;;;;;;6.10;51.80;101981.50;5064230;27;97133;-70
2021/10/18 07:57:44;;;;;;;1999.90;999.90;;;;;;;6.14;51.45;101993.19;5040862;27;99152;-71
2021/10/18 08:00:13;;;;;;;1999.90;999.90;;;;;;;6.16;51.81;101988.88;5044683;27;98998;-71
2021/10/18 08:02:41;;;;;;;1999.90;999.90;;;;;;;6.16;51.55;101979.22;5058912;27;97114;-70
2021/10/18 08:05:15;;;;;;;1999.90;999.90;;;;;;;6.21;51.46;101992.72;5065359;27;98458;-72
2021/10/18 08:07:46;;;;;;;1999.90;999.90;;;;;;;6.23;51.23;101986.69;5064821;27;98169;-70
2021/10/18 08:10:15;;;;;;;1999.90;999.90;;;;;;;6.28;51.09;101996.66;5067079;27;97636;-71
2021/10/18 08:12:44;;;;;;;1999.90;999.90;;;;;;;6.32;51.04;101989.00;5063862;27;97111;-71
2021/10/18 08:15:12;;;;;;;1999.90;999.90;;;;;;;6.35;51.08;101993.53;5065093;27;97588;-71
2021/10/18 08:17:40;;;;;;;1999.90;999.90;;;;;;;6.39;50.74;101979.66;5064327;27;97747;-71
2021/10/18 08:20:09;;;;;;;1999.90;999.90;;;;;;;6.44;50.54;101980.81;5066553;27;99316;-71
2021/10/18 08:22:37;;;;;;;1999.90;999.90;;;;;;;6.50;50.46;101990.03;5047799;27;97936;-70
2021/10/18 08:25:07;;;;;;;1999.90;999.90;;;;;;;6.56;50.77;101990.34;5064524;27;96846;-71
2021/10/18 08:27:34;;;;;;;1999.90;999.90;;;;;;;6.61;50.61;101986.28;5046690;27;99588;-71
2021/10/18 08:30:03;;;;;;;1999.90;999.90;;;;;;;6.68;50.72;101990.16;5064940;27;99640;-69
2021/10/18 08:32:30;;;;;;;1999.90;999.90;;;;;;;6.72;50.16;101994.78;5045065;27;96880;-70
2021/10/18 08:34:58;;;;;;;1999.90;999.90;;;;;;;6.77;50.57;101993.31;5044980;27;97206;-70
2021/10/18 08:38:15;;;;;;;1999.90;999.90;;;;;;;6.83;50.36;101996.31;5062793;27;97711;-71
2021/10/18 08:40:15;;;;;;;1999.90;999.90;;;;;;;6.90;50.15;101995.81;5064784;27;100995;-72
2021/10/18 08:42:55;;;;;;;1999.90;999.90;;;;;;;6.94;49.97;101998.69;5063460;27;97048;-70
2021/10/18 08:45:23;;;;;;;1999.90;999.90;;;;;;;6.98;49.86;102000.69;5067898;27;97330;-70
2021/10/18 08:47:53;;;;;;;1999.90;999.90;;;;;;;7.05;49.65;101999.31;5066057;27;99267;-70
2021/10/18 08:50:22;;;;;;;1999.90;999.90;;;;;;;7.09;49.33;102003.94;5064210;27;99602;-72
2021/10/18 08:52:50;;;;;;;1999.90;999.90;;;;;;;7.14;49.39;102007.75;5047579;27;97596;-70
2021/10/18 08:55:20;;;;;;;1999.90;999.90;;;;;;;7.17;49.41;102002.59;5047856;27;97298;-70
2021/10/18 08:57:48;;;;;;;1999.90;999.90;;;;;;;7.22;49.29;102001.13;5047610;27;98394;-70
2021/10/18 09:00:40;;;;;;;1999.90;999.90;;;;;;;7.27;48.71;101997.88;5060959;27;97568;-70
2021/10/18 09:03:20;;;;;;;1999.90;999.90;;;;;;;7.35;48.92;102000.03;5063003;27;97678;-70
2021/10/18 09:05:48;;;;;;;1999.90;999.90;;;;;;;7.43;49.48;101996.09;5045567;27;96857;-70
2021/10/18 09:08:34;;;;;;;1999.90;999.90;;;;;;;7.50;48.70;101990.28;5044056;27;99478;-71
2021/10/18 09:11:12;;;;;;;1999.90;999.90;;;;;;;7.55;48.24;102000.28;5062256;27;97889;-71
2021/10/18 09:13:46;;;;;;;1999.90;999.90;;;;;;;7.62;48.82;101993.59;5047960;27;96885;-71
2021/10/18 09:16:25;;;;;;;1999.90;999.90;;;;;;;7.68;48.59;101983.31;5065150;27;97345;-71
2021/10/18 09:18:58;;;;;;;1999.90;999.90;;;;;;;7.75;48.72;101989.00;5066123;27;99243;-71
2021/10/18 09:21:31;;;;;;;1999.90;999.90;;;;;;;7.82;48.42;101990.25;5046540;27;100440;-71
2021/10/18 09:24:00;;;;;;;1999.90;999.90;;;;;;;7.88;48.30;101990.53;5064988;27;97443;-71
2021/10/18 09:26:31;;;;;;;1999.90;999.90;;;;;;;7.92;48.48;101993.44;5063103;27;97537;-71
2021/10/18 09:29:05;;;;;;;1999.90;999.90;;;;;;;7.97;48.04;101991.91;5060942;27;98695;-71
2021/10/18 09:31:34;;;;;;;1999.90;999.90;;;;;;;8.03;48.17;101989.59;5065908;27;99440;-70
2021/10/18 09:34:07;;;;;;;1999.90;999.90;;;;;;;8.09;48.04;101997.81;5067790;27;97640;-71
2021/10/18 09:36:36;;;;;;;1999.90;999.90;;;;;;;8.14;48.26;101996.34;5043596;27;96944;-71
2021/10/18 09:39:29;;;;;;;1999.90;999.90;;;;;;;8.20;47.63;101993.97;5060009;27;99494;-71
2021/10/18 09:42:00;;;;;;;1999.90;999.90;;;;;;;8.29;47.88;101992.63;5047825;27;98993;-71
2021/10/18 09:45:02;;;;;;;1999.90;999.90;;;;;;;8.35;47.27;102000.91;5061156;27;97854;-72
2021/10/18 10:52:57;;;;;;;1999.90;999.90;;;;;;;9.83;43.35;101975.19;5062511;27;96756;-70
2021/10/18 10:55:28;;;;;;;1999.90;999.90;;;;;;;9.88;44.68;101975.41;5044937;27;97949;-70
2021/10/18 10:57:59;;;;;;;1999.90;999.90;;;;;;;9.93;44.97;101981.81;5045791;27;99270;-70
2021/10/18 11:00:32;;;;;;;1999.90;999.90;;;;;;;9.98;44.41;101975.84;5064485;27;99342;-71
2021/10/18 11:03:36;;;;;;;1999.90;999.90;;;;;;;10.02;43.76;101977.78;5062021;27;98043;-71
2021/10/18 11:06:10;;;;;;;1999.90;999.90;;;;;;;10.11;44.59;101979.91;5055779;27;97209;-70
2021/10/18 11:08:40;;;;;;;1999.90;999.90;;;;;;;10.16;44.52;101981.00;5044050;27;99422;-70
2021/10/18 11:11:12;;;;;;;1999.90;999.90;;;;;;;10.20;44.30;101980.31;5061773;27;98894;-70
2021/10/18 11:13:49;;;;;;;1999.90;999.90;;;;;;;10.25;43.89;101980.50;5060665;27;97345;-70
2021/10/18 11:16:18;;;;;;;1999.90;999.90;;;;;;;10.31;44.26;101979.00;5061629;27;97402;-69
2021/10/18 11:18:49;;;;;;;1999.90;999.90;;;;;;;10.35;44.30;101966.72;5044657;27;99056;-70
2021/10/18 11:21:21;;;;;;;1999.90;999.90;;;;;;;10.41;43.83;101967.91;5060089;27;96753;-70
2021/10/18 11:24:00;;;;;;;1999.90;999.90;;;;;;;10.46;43.58;101960.13;5059774;27;97150;-70
2021/10/18 11:26:30;;;;;;;1999.90;999.90;;;;;;;10.52;44.16;101953.28;5047327;27;97435;-73
2021/10/18 11:29:00;;;;;;;1999.90;999.90;;;;;;;10.60;44.12;101964.22;5060456;27;99460;-70
2021/10/18 11:31:30;;;;;;;1999.90;999.90;;;;;;;10.68;43.96;101958.38;5063409;27;98861;-71
2021/10/18 11:34:03;;;;;;;1999.90;999.90;;;;;;;10.75;43.78;101952.44;5065810;27;97595;-72
2021/10/18 11:36:32;;;;;;;1999.90;999.90;;;;;;;10.83;43.86;101950.09;5063995;27;96709;-70
2021/10/18 11:39:17;;;;;;;1999.90;999.90;;;;;;;10.86;43.13;101951.09;5060896;27;97397;-71
2021/10/18 11:42:11;;;;;;;1999.90;999.90;;;;;;;10.94;43.27;101944.31;5043490;27;99850;-71
2021/10/18 11:44:58;;;;;;;1999.90;999.90;;;;;;;10.99;42.26;101944.50;5066507;27;98242;-71
2021/10/18 11:47:34;;;;;;;1999.90;999.90;;;;;;;11.10;43.55;101948.47;5067049;27;97307;-71
2021/10/18 11:50:14;;;;;;;1999.90;999.90;;;;;;;11.13;43.17;101941.50;5063545;27;98856;-71
2021/10/18 11:52:46;;;;;;;1999.90;999.90;;;;;;;11.15;43.42;101934.47;5067798;27;97816;-72
2021/10/18 11:55:15;;;;;;;1999.90;999.90;;;;;;;11.19;43.68;101924.81;5045979;27;96863;-71
2021/10/18 11:57:46;;;;;;;1999.90;999.90;;;;;;;11.25;43.63;101925.03;5042241;27;98515;-74
2021/10/18 12:00:19;;;;;;;1999.90;999.90;;;;;;;11.32;43.34;101920.88;5046991;27;96683;-73
2021/10/18 12:02:48;;;;;;;1999.90;999.90;;;;;;;11.38;43.37;101922.00;5062640;27;96944;-74
2021/10/18 12:05:17;;;;;;;1999.90;999.90;;;;;;;11.44;43.26;101924.88;5046833;27;98201;-73
2021/10/18 12:07:48;;;;;;;1999.90;999.90;;;;;;;11.47;43.12;101922.31;5063955;27;96891;-72
2021/10/18 12:10:27;;;;;;;1999.90;999.90;;;;;;;11.52;42.56;101925.16;5064020;27;98959;-72